createdAt,value
2018-07-03T06:51:18.512Z,99886.86
2018-07-03T06:53:46.146Z,99879.52
2018-07-03T06:56:13.827Z,99873.67
2018-07-03T06:58:41.473Z,99871.34
2018-07-03T07:01:09.118Z,99874.77
2018-07-03T07:03:36.761Z,99876.60
2018-07-03T07:06:04.444Z,99876.44
2018-07-03T07:08:32.177Z,99876.79
2018-07-03T07:10:59.735Z,99875.23
2018-07-03T07:13:27.376Z,99870.26
2018-07-03T07:15:55.072Z,99875.72
2018-07-03T07:18:22.715Z,99870.11
2018-07-03T07:20:50.357Z,99865.02
2018-07-03T07:23:18.035Z,99863.92
2018-07-03T07:25:45.692Z,99856.64
2018-07-03T07:28:13.366Z,99865.20
2018-07-03T07:30:41.023Z,99860.41
2018-07-03T07:33:08.676Z,99863.30
2018-07-03T07:35:36.320Z,99867.05
2018-07-03T07:38:04.212Z,99875.34
2018-07-03T07:40:31.866Z,99876.44
2018-07-03T07:42:59.487Z,99874.77
2018-07-03T07:45:27.123Z,99881.20
2018-07-03T07:47:54.775Z,99884.39
2018-07-03T07:50:22.379Z,99894.13
2018-07-03T07:52:50.048Z,99894.60
2018-07-03T07:55:17.659Z,99903.04
2018-07-03T07:57:45.280Z,99904.88
2018-07-03T08:00:13.301Z,99905.66
2018-07-03T08:02:40.879Z,99911.29
2018-07-03T08:05:08.531Z,99908.88
2018-07-03T08:07:36.167Z,99918.11
2018-07-03T08:10:04.107Z,99922.64
2018-07-03T08:12:31.786Z,99926.91
2018-07-03T08:14:59.415Z,99932.54
2018-07-03T08:17:27.001Z,99943.02
2018-07-03T08:19:54.586Z,99939.55
2018-07-03T08:22:22.199Z,99950.83
2018-07-03T08:24:49.784Z,99960.78
2018-07-03T08:27:17.413Z,99962.08
2018-07-03T08:29:45.031Z,99973.62
2018-07-03T08:32:12.666Z,99979.24
2018-07-03T08:34:40.322Z,99978.44
2018-07-03T08:37:07.918Z,99987.86
2018-07-03T08:39:35.534Z,99990.19
2018-07-03T08:42:03.172Z,99995.02
2018-07-03T08:44:30.787Z,100003.03
2018-07-03T08:46:58.413Z,100002.47
2018-07-03T08:49:26.032Z,100007.85
2018-07-03T08:51:53.690Z,100006.80
2018-07-03T08:54:21.224Z,100013.67
2018-07-03T08:56:48.825Z,100017.69
2018-07-03T08:59:16.413Z,100018.28
2018-07-03T09:03:12.415Z,100009.12
2018-07-03T09:05:40.077Z,100012.30
2018-07-03T09:08:07.748Z,100013.31
2018-07-03T09:10:35.447Z,100010.99
2018-07-03T09:13:03.123Z,100013.08
2018-07-03T09:15:30.792Z,100011.85
2018-07-03T09:17:58.528Z,100014.30
2018-07-03T09:20:26.140Z,100016.17
2018-07-03T09:22:53.900Z,100017.58
2018-07-03T09:25:21.530Z,100025.30
2018-07-03T09:27:49.166Z,100013.77
2018-07-03T09:30:16.823Z,100015.16
2018-07-03T09:32:44.456Z,100007.43
2018-07-03T09:35:12.120Z,100010.95
2018-07-03T09:37:39.777Z,100011.20
2018-07-03T09:40:07.436Z,100006.92
2018-07-03T09:42:35.123Z,100007.19
2018-07-03T09:45:03.104Z,100002.56
2018-07-03T09:47:30.743Z,100012.14
2018-07-03T09:49:58.374Z,100003.17
2018-07-03T09:52:26.032Z,99998.52
2018-07-03T09:54:53.716Z,99997.70
2018-07-03T09:57:21.380Z,99994.67
2018-07-03T09:59:49.107Z,99994.73
2018-07-03T10:02:16.768Z,99995.05
2018-07-03T10:04:44.420Z,99989.70
2018-07-03T10:07:12.074Z,99989.43
2018-07-03T10:09:39.711Z,99979.93
2018-07-03T10:12:07.399Z,99983.67
2018-07-03T10:14:35.349Z,99976.09
2018-07-03T10:17:03.010Z,99984.33
2018-07-03T10:19:30.699Z,99975.51
2018-07-03T10:21:58.354Z,99978.00
2018-07-03T10:24:25.989Z,99971.52
2018-07-03T10:26:53.864Z,99976.44
2018-07-03T10:29:21.526Z,99962.50
2018-07-03T10:31:49.171Z,99969.64
2018-07-03T10:34:16.894Z,99963.28
2018-07-03T10:36:44.588Z,99960.28
2018-07-03T10:39:12.600Z,99956.00
2018-07-03T10:41:40.446Z,99950.09
2018-07-03T10:44:08.095Z,99953.57
2018-07-03T10:46:35.764Z,99952.28
2018-07-03T10:49:03.635Z,99957.80
2018-07-03T10:51:31.268Z,99960.57
2018-07-03T10:53:58.968Z,99963.41
2018-07-03T10:56:26.706Z,99962.75
2018-07-03T10:58:54.687Z,99951.69
2018-07-03T11:01:22.435Z,99954.31
2018-07-03T11:03:50.326Z,99959.61
2018-07-03T11:06:17.984Z,99957.83
2018-07-03T11:08:45.697Z,99959.08
2018-07-03T11:11:13.409Z,99951.25
2018-07-03T11:13:41.126Z,99954.98
2018-07-03T11:16:08.792Z,99957.16
2018-07-03T11:18:36.430Z,99956.19
2018-07-03T11:21:04.123Z,99950.97
2018-07-03T11:23:31.851Z,99952.64
2018-07-03T11:25:59.544Z,99950.95
2018-07-03T11:28:27.371Z,99953.52
2018-07-03T11:30:55.036Z,99952.37
2018-07-03T11:33:22.712Z,99955.89
2018-07-03T11:35:50.460Z,99948.02
2018-07-03T11:38:18.168Z,99947.86
2018-07-03T11:40:45.866Z,99945.48
2018-07-03T11:43:13.584Z,99937.96
2018-07-03T11:45:41.279Z,99936.82
2018-07-03T11:48:08.975Z,99936.22
2018-07-03T11:50:36.627Z,99931.27
2018-07-03T11:53:04.355Z,99928.55
2018-07-03T11:55:32.104Z,99922.63
2018-07-03T11:57:59.783Z,99921.02
2018-07-03T12:00:27.515Z,99920.95
2018-07-03T12:02:55.167Z,99916.88
2018-07-03T12:05:22.800Z,99915.19
2018-07-03T12:07:50.567Z,99909.70
2018-07-03T12:10:33.650Z,99912.41
2018-07-03T12:13:01.348Z,99900.17
2018-07-03T12:15:29.075Z,99905.62
2018-07-03T12:17:56.747Z,99911.83
2018-07-03T12:20:24.391Z,99896.59
2018-07-03T12:22:52.564Z,99896.92
2018-07-03T12:25:20.317Z,99895.72
2018-07-03T12:27:48.112Z,99894.53
2018-07-03T12:30:15.796Z,99895.57
2018-07-03T12:32:43.454Z,99898.13
2018-07-03T12:35:11.236Z,99896.14
2018-07-03T12:37:38.951Z,99894.45
2018-07-03T12:40:06.633Z,99886.41
2018-07-03T12:42:34.519Z,99892.08
2018-07-03T12:45:02.600Z,99895.11
2018-07-03T12:47:30.363Z,99881.86
2018-07-03T12:49:58.012Z,99884.12
2018-07-03T12:52:25.688Z,99890.51
2018-07-03T12:54:53.346Z,99877.63
2018-07-03T12:57:21.205Z,99873.23
2018-07-03T12:59:48.895Z,99872.63
2018-07-03T13:02:17.420Z,99870.22
2018-07-03T13:04:45.271Z,99865.83
2018-07-03T13:07:12.926Z,99873.25
2018-07-03T13:09:41.059Z,99863.34
2018-07-03T13:12:08.815Z,99862.48
2018-07-03T13:14:36.732Z,99862.34
2018-07-03T13:17:04.424Z,99854.45
2018-07-03T13:19:32.064Z,99856.31
2018-07-03T13:21:59.711Z,99857.50
2018-07-03T13:24:28.281Z,99851.42
2018-07-03T13:26:56.058Z,99855.11
2018-07-03T13:29:23.762Z,99856.99
2018-07-03T13:31:51.422Z,99850.83
2018-07-03T13:34:19.108Z,99849.72
2018-07-03T13:36:46.905Z,99847.83
2018-07-03T13:39:14.598Z,99848.78
2018-07-03T13:41:42.275Z,99850.99
2018-07-03T13:44:10.053Z,99844.01
2018-07-03T13:46:37.750Z,99854.54
2018-07-03T13:49:05.422Z,99860.99
2018-07-03T13:51:33.327Z,99853.89
2018-07-03T13:54:01.008Z,99852.88
2018-07-03T13:56:28.966Z,99847.80
2018-07-03T13:58:57.096Z,99843.36
2018-07-03T14:01:28.994Z,99850.33
2018-07-03T14:03:56.987Z,99851.27
2018-07-03T14:06:24.795Z,99840.47
2018-07-03T14:08:52.459Z,99839.11
2018-07-03T14:11:20.295Z,99841.97
2018-07-03T14:13:47.959Z,99846.84
2018-07-03T14:16:16.135Z,99847.41
2018-07-03T14:18:43.874Z,99852.23
2018-07-03T14:21:11.618Z,99851.06
2018-07-03T14:23:39.416Z,99847.64
2018-07-03T14:26:07.201Z,99841.55
2018-07-03T14:28:34.827Z,99843.59
2018-07-03T14:31:02.498Z,99845.05
2018-07-03T14:33:30.199Z,99844.22
2018-07-03T14:35:57.906Z,99841.27
2018-07-03T14:38:25.681Z,99841.89
2018-07-03T14:40:53.365Z,99836.62
2018-07-03T14:43:21.063Z,99835.02
2018-07-03T14:45:48.742Z,99837.70
2018-07-03T14:48:16.487Z,99831.34
2018-07-03T14:50:44.409Z,99827.42
2018-07-03T14:53:12.179Z,99822.94
2018-07-03T14:55:39.823Z,99816.11
2018-07-03T14:58:07.507Z,99819.23
2018-07-03T15:00:35.246Z,99820.41
2018-07-03T15:03:03.045Z,99820.41
2018-07-03T15:05:30.828Z,99813.81
2018-07-03T15:07:58.631Z,99814.25
2018-07-03T15:10:35.132Z,99816.20
2018-07-03T15:13:04.281Z,99810.55
2018-07-03T15:15:32.160Z,99810.50
2018-07-03T15:17:59.907Z,99805.20
2018-07-03T15:20:27.814Z,99807.88
2018-07-03T15:23:02.396Z,99806.59
2018-07-03T15:25:30.320Z,99806.73
2018-07-03T15:27:58.171Z,99807.61
2018-07-03T15:30:38.024Z,99811.54
2018-07-03T15:33:05.747Z,99802.98
2018-07-03T15:35:33.567Z,99795.37
2018-07-03T15:38:01.583Z,99798.92
2018-07-03T15:40:29.354Z,99800.19
2018-07-03T15:42:57.107Z,99804.16
2018-07-03T15:45:24.938Z,99799.41
2018-07-03T15:47:53.319Z,99791.02
2018-07-03T15:50:21.471Z,99797.81
2018-07-03T15:52:49.461Z,99785.73
2018-07-03T15:55:17.397Z,99786.80
2018-07-03T15:57:45.176Z,99779.53
2018-07-03T16:00:14.506Z,99790.33
2018-07-03T16:02:59.743Z,99786.78
2018-07-03T16:05:49.575Z,99783.33
2018-07-03T16:08:38.173Z,99781.38
2018-07-03T16:11:05.998Z,99772.14
2018-07-03T16:13:33.899Z,99766.06
2018-07-03T16:16:01.775Z,99768.38
2018-07-03T16:18:29.652Z,99773.36
2018-07-03T16:20:57.391Z,99765.74
2018-07-03T16:23:25.980Z,99767.23
2018-07-03T16:25:53.768Z,99765.45
2018-07-03T16:28:21.835Z,99763.27
2018-07-03T16:30:49.808Z,99766.23
2018-07-03T16:33:17.678Z,99769.73
2018-07-03T16:35:45.312Z,99777.47
2018-07-03T16:38:13.273Z,99778.43
2018-07-03T16:40:41.864Z,99773.18
2018-07-03T16:43:09.671Z,99772.48
2018-07-03T16:45:37.459Z,99772.48
2018-07-03T16:48:05.195Z,99780.70
2018-07-03T16:50:33.653Z,99778.55
2018-07-03T16:53:01.817Z,99777.48
2018-07-03T16:55:29.545Z,99782.30
2018-07-03T16:57:57.521Z,99778.75
2018-07-03T17:00:26.928Z,99780.94
2018-07-03T17:02:54.739Z,99780.22
2018-07-03T17:05:23.160Z,99781.73
2018-07-03T17:07:51.268Z,99786.42
2018-07-03T17:10:34.200Z,99781.09
2018-07-03T17:13:02.161Z,99781.13
2018-07-03T17:15:30.168Z,99775.47
2018-07-03T17:17:58.014Z,99782.52
2018-07-03T17:20:26.300Z,99781.93
2018-07-03T17:22:54.335Z,99778.91
2018-07-03T17:25:22.471Z,99776.32
2018-07-03T17:27:50.676Z,99787.45
2018-07-03T17:30:18.523Z,99788.67
2018-07-03T17:32:46.247Z,99785.17
2018-07-03T17:35:14.048Z,99783.83
2018-07-03T17:37:41.808Z,99784.55
2018-07-03T17:40:27.041Z,99787.00
2018-07-03T17:44:20.947Z,99788.22
2018-07-03T17:46:48.793Z,99788.22
2018-07-03T17:49:17.271Z,99792.09
2018-07-03T17:51:45.013Z,99792.65
2018-07-03T17:54:13.081Z,99785.23
2018-07-03T17:56:40.942Z,99787.00
2018-07-03T17:59:08.837Z,99779.08
2018-07-03T18:01:36.633Z,99787.53
2018-07-03T18:04:04.432Z,99783.71
2018-07-03T18:06:32.201Z,99782.61
2018-07-03T18:09:00.872Z,99777.37
2018-07-03T18:11:28.871Z,99779.86
2018-07-03T18:13:56.598Z,99774.59
2018-07-03T18:16:24.474Z,99780.09
2018-07-03T18:18:58.260Z,99780.00
2018-07-03T18:21:26.375Z,99785.71
2018-07-03T18:23:54.419Z,99789.36
2018-07-03T18:26:22.416Z,99790.39
2018-07-03T18:28:50.590Z,99796.03
2018-07-03T18:31:19.969Z,99795.52
2018-07-03T18:33:47.735Z,99796.02
2018-07-03T18:36:15.589Z,99788.00
2018-07-03T18:38:43.897Z,99792.92
2018-07-03T18:41:12.449Z,99794.70
2018-07-03T18:43:40.613Z,99795.70
2018-07-03T18:46:08.531Z,99785.77
2018-07-03T18:48:36.662Z,99788.04
2018-07-03T18:51:04.668Z,99790.81
2018-07-03T18:53:32.825Z,99781.20
2018-07-03T18:56:00.796Z,99784.83
2018-07-03T18:58:28.586Z,99789.00
2018-07-03T19:00:56.460Z,99784.13
2018-07-03T19:03:24.359Z,99790.72
2018-07-03T19:05:52.927Z,99788.10
2018-07-03T19:08:20.807Z,99783.34
2018-07-03T19:10:48.633Z,99787.42
2018-07-03T19:13:16.391Z,99787.52
2018-07-03T19:15:44.347Z,99790.06
2018-07-03T19:18:12.156Z,99791.80
2018-07-03T19:20:39.924Z,99790.03
2018-07-03T19:23:07.744Z,99797.64
2018-07-03T19:25:35.452Z,99793.70
2018-07-03T19:28:03.204Z,99798.28
2018-07-03T19:30:30.991Z,99793.45
2018-07-03T19:33:00.802Z,99790.30
2018-07-03T19:35:28.518Z,99783.98
2018-07-03T19:37:56.221Z,99785.39
2018-07-03T19:40:23.988Z,99780.89
2018-07-03T19:43:30.848Z,99789.56
2018-07-03T19:46:00.121Z,99787.20
2018-07-03T19:48:28.019Z,99791.26
2018-07-03T19:50:55.903Z,99787.83
2018-07-03T19:53:23.638Z,99780.65
2018-07-03T19:55:52.698Z,99783.41
2018-07-03T19:58:20.705Z,99784.54
2018-07-03T20:00:49.491Z,99783.25
2018-07-03T20:03:17.259Z,99786.25
2018-07-03T20:05:45.350Z,99779.09
2018-07-03T20:08:13.189Z,99776.95
2018-07-03T20:10:41.006Z,99777.79
2018-07-03T20:13:11.250Z,99784.53
2018-07-03T20:15:39.048Z,99787.46
2018-07-03T20:18:08.235Z,99782.64
2018-07-03T20:20:36.000Z,99781.88
2018-07-03T20:23:03.794Z,99783.75
2018-07-03T20:25:31.511Z,99776.83
2018-07-03T20:27:59.611Z,99774.95
2018-07-03T20:30:27.379Z,99775.22
2018-07-03T20:32:55.043Z,99783.25
2018-07-03T20:35:22.747Z,99787.27
2018-07-03T20:38:02.030Z,99799.61
2018-07-03T20:40:51.207Z,99797.45
2018-07-03T20:43:19.215Z,99806.83
2018-07-03T20:45:47.346Z,99806.55
2018-07-03T20:48:15.067Z,99808.92
2018-07-03T20:50:42.795Z,99814.56
2018-07-03T20:53:10.590Z,99813.74
2018-07-03T20:55:38.419Z,99821.25
2018-07-03T20:58:06.127Z,99831.16
2018-07-03T21:00:33.999Z,99833.81
2018-07-03T21:03:01.708Z,99833.53
2018-07-03T21:05:29.958Z,99836.97
2018-07-03T21:07:57.830Z,99839.60
2018-07-03T21:10:35.790Z,99837.88
2018-07-03T21:13:03.392Z,99835.73
2018-07-03T21:15:31.076Z,99845.41
2018-07-03T21:17:58.926Z,99840.85
2018-07-03T21:20:26.644Z,99846.73
2018-07-03T21:22:54.318Z,99844.30
2018-07-03T21:25:22.022Z,99842.90
2018-07-03T21:27:49.610Z,99848.24
2018-07-03T21:30:17.221Z,99851.69
2018-07-03T21:32:45.369Z,99851.16
2018-07-03T21:35:13.229Z,99846.33
2018-07-03T21:37:40.861Z,99849.16
2018-07-03T21:40:08.470Z,99846.13
2018-07-03T21:42:36.458Z,99847.06
2018-07-03T21:45:04.199Z,99846.27
2018-07-03T21:47:31.827Z,99851.47
2018-07-03T21:49:59.487Z,99846.73
2018-07-03T21:52:27.210Z,99848.77
2018-07-03T21:54:54.778Z,99836.16
2018-07-03T21:57:22.362Z,99838.41
2018-07-03T21:59:50.006Z,99839.78
2018-07-03T22:02:17.803Z,99843.31
2018-07-03T22:04:45.446Z,99844.69
2018-07-03T22:07:13.039Z,99846.22
2018-07-03T22:09:40.714Z,99843.02
2018-07-03T22:12:08.355Z,99840.53
2018-07-03T22:14:38.497Z,99843.98
2018-07-03T22:17:06.466Z,99843.80
2018-07-03T22:19:34.070Z,99847.72
2018-07-03T22:22:01.683Z,99850.25
2018-07-03T22:24:29.399Z,99850.50
2018-07-03T22:26:57.010Z,99849.42
2018-07-03T22:29:24.654Z,99859.48
2018-07-03T22:31:52.218Z,99858.62
2018-07-03T22:34:19.793Z,99853.48
2018-07-03T22:36:47.367Z,99850.32
2018-07-03T22:39:14.969Z,99852.56
2018-07-03T22:41:42.557Z,99847.38
2018-07-03T22:44:10.221Z,99853.30
2018-07-03T22:46:37.866Z,99856.22
2018-07-03T22:49:05.461Z,99855.56
2018-07-03T22:51:33.098Z,99859.09
2018-07-03T22:54:00.753Z,99866.98
2018-07-03T22:56:28.485Z,99870.12
2018-07-03T22:58:56.197Z,99865.91
2018-07-03T23:01:23.795Z,99869.75
2018-07-03T23:03:51.427Z,99864.84
2018-07-03T23:06:19.018Z,99863.22
2018-07-03T23:08:46.654Z,99863.45
2018-07-03T23:11:14.357Z,99869.08
2018-07-03T23:13:42.047Z,99867.27
2018-07-03T23:16:09.695Z,99873.67
2018-07-03T23:18:37.345Z,99876.84
2018-07-03T23:21:05.610Z,99871.23
2018-07-03T23:23:33.210Z,99867.23
2018-07-03T23:26:00.878Z,99869.41
2018-07-03T23:28:28.517Z,99866.13
2018-07-03T23:30:56.137Z,99875.51
2018-07-03T23:33:23.762Z,99880.52
2018-07-03T23:35:51.446Z,99876.23
2018-07-03T23:38:19.075Z,99880.30
2018-07-03T23:40:46.822Z,99880.48
2018-07-03T23:43:14.377Z,99880.36
2018-07-03T23:45:48.974Z,99877.00
2018-07-03T23:48:34.169Z,99877.15
2018-07-03T23:51:19.952Z,99884.20
2018-07-03T23:54:05.023Z,99880.71
2018-07-03T23:56:49.965Z,99881.27
2018-07-03T23:59:35.256Z,99877.82
